Time;durP1;ratioP1;P1;durP2;ratioP2;P2;SDS_P1;SDS_P2;PMS_P1;PMS_P2;Temp;Humidity;BMP_temperature;BMP_pressure;BME280_temperature;BME280_humidity;BME280_pressure;Samples;Min_cycle;Max_cycle;Signal;HPM_P1;HPM_P2
2023/03/01 00:01:51;;;;;;;17.53;11.53;;;;;;;0.62;100.00;100225.81;5056897;28;20248;-80
2023/03/01 00:04:19;;;;;;;17.37;11.23;;;;;;;0.51;100.00;100225.88;5093079;28;20199;-80
2023/03/01 00:06:48;;;;;;;17.03;11.77;;;;;;;0.49;100.00;100217.22;5088644;28;20199;-79
2023/03/01 00:09:18;;;;;;;16.97;11.23;;;;;;;0.44;100.00;100214.63;5095821;27;20192;-80
2023/03/01 00:11:47;;;;;;;19.67;12.47;;;;;;;0.50;100.00;100213.75;5091818;28;20227;-79
2023/03/01 00:14:17;;;;;;;12.77;9.90;;;;;;;0.60;100.00;100211.94;5088562;28;20230;-79
2023/03/01 00:16:47;;;;;;;17.57;11.17;;;;;;;0.53;100.00;100205.88;5094088;28;20188;-79
2023/03/01 00:19:18;;;;;;;16.63;10.97;;;;;;;0.46;100.00;100209.41;5090856;28;20295;-80
2023/03/01 00:21:47;;;;;;;15.90;10.80;;;;;;;0.47;100.00;100201.56;5093958;28;20199;-79
2023/03/01 00:24:16;;;;;;;18.67;10.87;;;;;;;0.60;100.00;100198.91;5092918;28;20355;-79
2023/03/01 00:26:45;;;;;;;15.13;10.40;;;;;;;0.50;100.00;100201.56;5092890;28;20196;-79
2023/03/01 00:29:13;;;;;;;17.03;11.80;;;;;;;0.35;100.00;100200.78;5090900;28;20192;-79
2023/03/01 00:31:41;;;;;;;20.10;13.20;;;;;;;0.44;100.00;100190.31;5091535;28;20192;-79
2023/03/01 00:34:11;;;;;;;20.70;13.00;;;;;;;0.33;100.00;100190.38;5090705;28;20199;-79
2023/03/01 00:36:40;;;;;;;16.03;11.27;;;;;;;0.42;100.00;100195.53;5088127;28;20253;-80
2023/03/01 00:39:13;;;;;;;17.03;12.13;;;;;;;0.47;100.00;100190.28;5093895;28;20192;-79
2023/03/01 00:41:41;;;;;;;17.27;11.33;;;;;;;0.49;100.00;100189.41;5092529;28;20199;-79
2023/03/01 00:44:10;;;;;;;18.43;11.53;;;;;;;0.45;100.00;100184.22;5093643;28;20200;-80
2023/03/01 00:46:39;;;;;;;16.97;11.47;;;;;;;0.49;100.00;100193.75;5086046;28;20196;-80
2023/03/01 00:49:07;;;;;;;17.10;11.27;;;;;;;0.54;100.00;100189.38;5091919;28;20250;-79
2023/03/01 00:51:39;;;;;;;17.83;11.27;;;;;;;0.44;100.00;100183.34;5090769;28;20195;-80
2023/03/01 00:54:07;;;;;;;17.70;12.23;;;;;;;0.38;100.00;100186.00;5095995;27;20260;-79
2023/03/01 00:56:36;;;;;;;19.13;11.43;;;;;;;0.29;100.00;100188.69;5092206;28;20203;-80
2023/03/01 00:59:04;;;;;;;16.20;10.97;;;;;;;0.20;100.00;100184.38;5094283;28;20669;-79
2023/03/01 01:01:32;;;;;;;17.53;11.10;;;;;;;0.21;100.00;100180.03;5094119;28;20203;-79
2023/03/01 01:04:03;;;;;;;16.80;11.87;;;;;;;0.12;100.00;100174.88;5093425;28;20287;-80
2023/03/01 01:06:33;;;;;;;15.70;11.23;;;;;;;0.13;100.00;100181.81;5094235;28;20199;-80
2023/03/01 01:09:07;;;;;;;15.40;11.00;;;;;;;0.13;100.00;100168.78;5090328;28;20222;-79
2023/03/01 01:11:36;;;;;;;15.80;11.13;;;;;;;0.20;100.00;100162.69;5091727;28;20766;-80
2023/03/01 01:14:04;;;;;;;17.60;11.47;;;;;;;0.11;100.00;100166.19;5091174;28;20200;-79
2023/03/01 01:16:33;;;;;;;18.77;12.00;;;;;;;0.27;100.00;100162.59;5087579;28;20253;-79
2023/03/01 01:19:02;;;;;;;17.50;11.37;;;;;;;0.31;100.00;100171.28;5089449;28;20269;-79
2023/03/01 01:21:30;;;;;;;16.07;11.20;;;;;;;0.35;100.00;100167.78;5087949;28;20192;-79
2023/03/01 01:23:59;;;;;;;17.47;11.70;;;;;;;0.32;100.00;100165.19;5092657;28;20199;-79
2023/03/01 01:26:33;;;;;;;17.20;11.37;;;;;;;0.19;100.00;100163.53;5088489;28;20192;-79
2023/03/01 01:29:04;;;;;;;15.70;11.13;;;;;;;0.18;100.00;100173.06;5092376;28;20269;-79
2023/03/01 01:31:34;;;;;;;18.70;12.17;;;;;;;0.18;100.00;100172.22;5091389;28;20200;-79
2023/03/01 01:34:06;;;;;;;16.20;11.17;;;;;;;0.18;100.00;100164.41;5090052;28;20200;-80
2023/03/01 01:36:35;;;;;;;18.60;11.53;;;;;;;0.12;100.00;100177.47;5092867;28;20225;-79
2023/03/01 01:39:05;;;;;;;16.13;11.63;;;;;;;0.05;100.00;100170.56;5092922;28;20204;-79
2023/03/01 01:41:35;;;;;;;15.43;11.53;;;;;;;0.10;100.00;100168.81;5088204;28;20264;-79
2023/03/01 01:44:16;;;;;;;15.77;11.90;;;;;;;0.05;100.00;100162.75;5091086;28;20199;-79
2023/03/01 01:46:48;;;;;;;18.80;11.77;;;;;;;0.07;100.00;100167.06;5092379;28;20222;-80
2023/03/01 01:49:26;;;;;;;18.53;11.90;;;;;;;0.12;100.00;100174.88;5092225;28;20227;-79
2023/03/01 01:52:03;;;;;;;24.37;12.10;;;;;;;0.08;100.00;100166.19;5092645;28;20213;-79
2023/03/01 01:54:39;;;;;;;17.80;11.87;;;;;;;0.05;100.00;100171.44;5092140;28;20237;-80
2023/03/01 01:57:16;;;;;;;19.63;11.80;;;;;;;0.22;100.00;100171.34;5090946;28;20218;-79
2023/03/01 01:59:58;;;;;;;21.97;12.10;;;;;;;-0.06;100.00;100163.66;5092445;28;20655;-79
2023/03/01 02:02:27;;;;;;;21.00;12.57;;;;;;;-0.13;100.00;100164.56;5088833;28;20212;-79
2023/03/01 02:05:10;;;;;;;17.47;11.20;;;;;;;-0.06;100.00;100160.19;5089754;28;20248;-79
2023/03/01 02:07:40;;;;;;;16.80;11.43;;;;;;;0.05;100.00;100152.34;5090901;28;20207;-79
2023/03/01 02:10:10;;;;;;;17.97;12.13;;;;;;;0.05;100.00;100161.00;5092620;28;20204;-79
2023/03/01 02:12:41;;;;;;;17.30;11.50;;;;;;;-0.14;100.00;100155.03;5091653;28;20215;-80
2023/03/01 02:15:10;;;;;;;16.87;11.37;;;;;;;-0.10;100.00;100150.66;5086941;28;20672;-79
2023/03/01 02:17:39;;;;;;;20.77;11.60;;;;;;;0.04;100.00;100143.66;5085689;28;20222;-80
2023/03/01 02:20:17;;;;;;;16.70;11.50;;;;;;;-0.03;100.00;100144.56;5099696;28;20231;-79
2023/03/01 02:22:47;;;;;;;17.33;12.40;;;;;;;-0.08;100.00;100142.00;5100238;28;20642;-79
2023/03/01 02:25:28;;;;;;;16.10;11.30;;;;;;;-0.01;100.00;100141.06;5092933;28;20192;-79
2023/03/01 02:28:06;;;;;;;16.87;11.43;;;;;;;-0.21;100.00;100139.44;5096177;28;20191;-80
2023/03/01 02:30:36;;;;;;;17.40;10.93;;;;;;;-0.14;100.00;100143.75;5093463;28;20248;-79
2023/03/01 02:33:04;;;;;;;18.70;11.40;;;;;;;-0.13;100.00;100138.53;5093004;28;20196;-79
2023/03/01 02:35:36;;;;;;;20.43;12.10;;;;;;;-0.19;100.00;100135.97;5094606;28;20230;-79
2023/03/01 02:38:07;;;;;;;19.33;11.60;;;;;;;-0.31;100.00;100130.81;5096025;28;20275;-79
2023/03/01 02:40:39;;;;;;;18.57;11.83;;;;;;;0.05;100.00;100126.28;5092441;28;20199;-80
2023/03/01 02:43:11;;;;;;;19.97;11.90;;;;;;;-0.34;100.00;100130.81;5094530;28;20192;-79
2023/03/01 02:45:49;;;;;;;17.63;11.90;;;;;;;-0.36;100.00;100132.56;5095673;28;20646;-79
2023/03/01 02:48:17;;;;;;;18.00;11.50;;;;;;;-0.52;100.00;100123.09;5095692;28;20229;-79
2023/03/01 02:51:00;;;;;;;19.83;12.03;;;;;;;-0.60;100.00;100123.97;5092939;28;20183;-79
2023/03/01 02:53:40;;;;;;;16.03;11.07;;;;;;;-0.56;100.00;100122.25;5093993;28;20191;-78
2023/03/01 02:56:12;;;;;;;18.70;12.20;;;;;;;-0.62;100.00;100114.44;5094374;28;20183;-79
2023/03/01 02:58:45;;;;;;;17.83;12.03;;;;;;;-0.63;100.00;100110.97;5095465;28;20305;-79
2023/03/01 03:01:16;;;;;;;17.33;11.70;;;;;;;-0.57;100.00;100120.53;5095682;28;20184;-79
2023/03/01 03:03:44;;;;;;;17.87;12.00;;;;;;;-0.80;100.00;100110.16;5095120;28;20336;-79
2023/03/01 03:06:13;;;;;;;18.87;11.80;;;;;;;-0.81;100.00;100104.97;5095159;28;20219;-79
2023/03/01 03:08:41;;;;;;;18.07;11.60;;;;;;;-0.73;100.00;100103.22;5098145;27;20269;-79
2023/03/01 03:11:10;;;;;;;18.50;12.33;;;;;;;-0.78;100.00;100099.75;5094106;28;20188;-79
2023/03/01 03:13:47;;;;;;;17.93;11.63;;;;;;;-0.84;100.00;100092.84;5095648;28;20716;-79
2023/03/01 03:16:18;;;;;;;18.47;11.80;;;;;;;-0.70;100.00;100091.06;5097718;27;20233;-79
2023/03/01 03:18:46;;;;;;;17.97;11.83;;;;;;;-0.88;100.00;100085.91;5097242;27;20430;-80
2023/03/01 03:21:17;;;;;;;16.97;11.40;;;;;;;-0.83;100.00;100084.19;5092347;28;20198;-79
2023/03/01 03:23:45;;;;;;;17.90;12.10;;;;;;;-0.87;100.00;100083.34;5087020;28;20196;-80
2023/03/01 03:26:15;;;;;;;15.80;11.27;;;;;;;-0.88;100.00;100073.78;5091358;28;20192;-79
2023/03/01 03:28:43;;;;;;;19.97;11.87;;;;;;;-0.87;100.00;100083.34;5094083;28;20275;-79
2023/03/01 03:31:11;;;;;;;19.00;12.30;;;;;;;-1.01;100.00;100071.22;5094707;28;20214;-79
2023/03/01 03:33:41;;;;;;;15.07;11.03;;;;;;;-1.09;100.00;100088.56;5086241;28;20279;-79
2023/03/01 03:36:12;;;;;;;17.10;11.73;;;;;;;-1.09;100.00;100076.44;5096742;27;20188;-79
2023/03/01 03:38:41;;;;;;;20.17;12.87;;;;;;;-1.13;100.00;100077.31;5094604;28;20200;-79
2023/03/01 03:41:09;;;;;;;19.27;12.40;;;;;;;-1.04;100.00;100081.63;5092263;28;20196;-79
2023/03/01 03:43:39;;;;;;;17.37;11.50;;;;;;;-0.94;100.00;100081.59;5094756;28;20244;-79
2023/03/01 03:46:08;;;;;;;16.87;11.50;;;;;;;-1.01;100.00;100079.03;5094888;28;20214;-79
2023/03/01 03:48:39;;;;;;;17.73;12.23;;;;;;;-1.00;100.00;100072.94;5094783;28;20352;-80
2023/03/01 03:51:12;;;;;;;20.10;12.13;;;;;;;-1.07;100.00;100077.28;5091947;28;20655;-79
2023/03/01 03:53:41;;;;;;;18.00;12.00;;;;;;;-0.96;100.00;100077.28;5094569;28;20310;-79
2023/03/01 03:56:10;;;;;;;18.10;11.73;;;;;;;-0.89;100.00;100079.84;5090766;28;20200;-79
2023/03/01 03:58:39;;;;;;;16.30;11.37;;;;;;;-0.95;100.00;100079.03;5089272;28;20434;-79
2023/03/01 04:01:07;;;;;;;16.37;11.20;;;;;;;-0.80;100.00;100084.16;5091340;28;20202;-78
2023/03/01 04:03:36;;;;;;;18.23;11.67;;;;;;;-0.79;100.00;100078.09;5094008;28;20188;-79
2023/03/01 04:06:05;;;;;;;17.60;11.00;;;;;;;-0.78;100.00;100082.41;5094321;28;20199;-80
2023/03/01 04:08:35;;;;;;;18.60;12.10;;;;;;;-0.74;100.00;100088.50;5094296;28;20192;-79
2023/03/01 04:13:48;;;;;;;19.40;11.70;;;;;;;-0.67;100.00;100083.25;5093849;28;20195;-79
2023/03/01 04:16:17;;;;;;;16.53;11.10;;;;;;;-0.65;100.00;100075.44;5094330;28;20207;-79
2023/03/01 04:18:46;;;;;;;17.73;11.80;;;;;;;-0.67;100.00;100072.00;5091943;28;20224;-79
2023/03/01 04:21:14;;;;;;;18.83;12.10;;;;;;;-0.74;100.00;100071.16;5094163;28;20233;-79
2023/03/01 04:23:44;;;;;;;20.57;12.00;;;;;;;-0.73;100.00;100065.06;5092532;28;20654;-79
2023/03/01 04:26:12;;;;;;;17.97;11.87;;;;;;;-0.72;100.00;100060.72;5092563;28;20200;-79
2023/03/01 04:28:44;;;;;;;18.27;12.63;;;;;;;-0.84;100.00;100072.03;5093904;28;20188;-79
2023/03/01 04:31:17;;;;;;;19.67;11.13;;;;;;;-0.92;100.00;100059.06;5091187;28;20562;-79
2023/03/01 04:33:47;;;;;;;17.17;11.23;;;;;;;-0.91;100.00;100062.53;5092292;28;20665;-79
2023/03/01 04:36:17;;;;;;;20.17;13.63;;;;;;;-0.93;100.00;100059.06;5093618;28;20654;-79
2023/03/01 04:38:48;;;;;;;18.87;11.90;;;;;;;-0.80;100.00;100060.75;5089980;28;20191;-78
2023/03/01 04:41:18;;;;;;;18.60;11.93;;;;;;;-0.93;100.00;100062.53;5090023;28;20195;-79
2023/03/01 04:43:48;;;;;;;19.60;12.23;;;;;;;-0.93;100.00;100062.53;5093161;28;20192;-79
2023/03/01 04:46:18;;;;;;;21.70;12.50;;;;;;;-0.97;100.00;100062.53;5092928;28;20200;-79
2023/03/01 04:48:49;;;;;;;17.37;11.90;;;;;;;-0.99;100.00;100061.69;5091409;28;20283;-79
2023/03/01 04:51:18;;;;;;;18.07;12.07;;;;;;;-0.93;100.00;100066.88;5093102;28;20276;-79
2023/03/01 04:53:48;;;;;;;17.57;12.00;;;;;;;-0.92;100.00;100068.59;5091429;28;20225;-80
2023/03/01 04:56:17;;;;;;;18.13;12.13;;;;;;;-0.85;100.00;100064.25;5070654;28;20192;-79
2023/03/01 04:58:46;;;;;;;18.07;12.03;;;;;;;-0.85;100.00;100067.72;5086962;28;20195;-79
2023/03/01 05:01:17;;;;;;;18.87;12.83;;;;;;;-1.04;100.00;100064.31;5092614;28;20192;-79
2023/03/01 05:03:47;;;;;;;18.10;11.93;;;;;;;-1.01;100.00;100068.63;5093307;28;20199;-79
2023/03/01 05:06:17;;;;;;;19.80;12.40;;;;;;;-1.02;100.00;100061.69;5092472;28;20198;-79
2023/03/01 05:08:47;;;;;;;18.53;11.67;;;;;;;-1.02;100.00;100061.69;5093272;28;20188;-79
2023/03/01 05:11:16;;;;;;;20.00;11.70;;;;;;;-1.07;100.00;100056.50;5090838;28;20219;-79
2023/03/01 05:13:45;;;;;;;19.43;13.30;;;;;;;-1.11;100.00;100057.38;5092691;28;20228;-79
2023/03/01 05:16:14;;;;;;;20.20;13.00;;;;;;;-1.15;100.00;100058.28;5092969;28;20196;-79
2023/03/01 05:18:43;;;;;;;19.50;12.33;;;;;;;-1.16;100.00;100060.00;5096705;28;20253;-79
2023/03/01 05:21:15;;;;;;;17.70;11.57;;;;;;;-1.10;100.00;100061.72;5098316;28;20191;-79
2023/03/01 05:23:47;;;;;;;20.20;12.33;;;;;;;-1.12;100.00;100054.78;5092600;28;20188;-79
2023/03/01 05:26:18;;;;;;;19.37;12.20;;;;;;;-1.16;100.00;100056.50;5066819;28;20200;-78
2023/03/01 05:29:09;;;;;;;20.93;12.00;;;;;;;-1.14;100.00;100052.19;5070631;28;20212;-80
2023/03/01 05:31:38;;;;;;;19.33;12.17;;;;;;;-1.00;100.00;100053.00;5070275;28;20227;-79
2023/03/01 05:34:06;;;;;;;19.00;12.50;;;;;;;-0.97;100.00;100050.41;5070416;28;20250;-79
2023/03/01 05:36:35;;;;;;;17.10;11.70;;;;;;;-1.01;100.00;100048.69;5065783;28;20714;-79
2023/03/01 05:39:04;;;;;;;21.73;12.40;;;;;;;-0.92;100.00;100050.41;5066816;28;20205;-80
2023/03/01 05:41:33;;;;;;;18.77;12.23;;;;;;;-0.93;100.00;100056.47;5066920;28;20192;-79
2023/03/01 05:44:01;;;;;;;21.07;12.27;;;;;;;-0.92;100.00;100042.59;5070168;28;20204;-79
2023/03/01 05:46:29;;;;;;;17.13;12.40;;;;;;;-1.15;100.00;100050.47;5065177;28;20342;-79
2023/03/01 05:48:58;;;;;;;20.47;12.63;;;;;;;-0.98;100.00;100053.00;5067776;28;20196;-79
2023/03/01 05:51:26;;;;;;;18.83;12.27;;;;;;;-0.93;100.00;100056.47;5079067;28;20215;-79
2023/03/01 05:53:54;;;;;;;22.60;13.60;;;;;;;-1.06;100.00;100050.47;5091378;28;20200;-79
2023/03/01 05:56:24;;;;;;;44.33;24.37;;;;;;;-0.96;100.00;100051.28;5090191;28;20329;-79
2023/03/01 05:58:52;;;;;;;53.97;30.10;;;;;;;-0.96;100.00;100044.34;5092220;28;20247;-80
2023/03/01 06:01:20;;;;;;;28.70;17.97;;;;;;;-1.09;100.00;100053.03;5090507;28;20256;-79
2023/03/01 06:03:49;;;;;;;33.93;20.40;;;;;;;-1.02;100.00;100048.69;5091055;28;20210;-79
2023/03/01 06:06:18;;;;;;;61.63;30.83;;;;;;;-1.04;100.00;100053.91;5089555;28;20184;-79
2023/03/01 06:08:46;;;;;;;91.13;45.23;;;;;;;-1.02;100.00;100049.56;5089286;28;20195;-79
2023/03/01 06:11:14;;;;;;;81.13;41.90;;;;;;;-0.98;100.00;100048.66;5088409;28;20219;-79
2023/03/01 06:13:45;;;;;;;41.40;23.30;;;;;;;-0.97;100.00;100047.78;5092242;28;20199;-80
2023/03/01 06:16:14;;;;;;;43.67;25.30;;;;;;;-0.98;100.00;100053.88;5089470;28;20208;-79
2023/03/01 06:18:43;;;;;;;45.47;25.73;;;;;;;-1.01;100.00;100061.69;5086740;28;20239;-79
2023/03/01 06:21:11;;;;;;;34.47;20.10;;;;;;;-1.02;100.00;100056.50;5092346;28;20199;-79
2023/03/01 06:23:39;;;;;;;21.07;14.17;;;;;;;-1.13;100.00;100060.88;5092315;28;20188;-80
2023/03/01 06:26:09;;;;;;;20.23;13.57;;;;;;;-1.29;100.00;100062.63;5088080;28;20199;-79
2023/03/01 06:28:37;;;;;;;24.10;13.37;;;;;;;-1.37;100.00;100047.03;5091882;28;20200;-80
2023/03/01 06:31:08;;;;;;;19.40;12.67;;;;;;;-1.38;100.00;100060.03;5091944;28;20298;-79
2023/03/01 06:33:37;;;;;;;21.77;13.33;;;;;;;-1.37;100.00;100052.22;5092458;28;20303;-79
2023/03/01 06:36:06;;;;;;;19.33;12.53;;;;;;;-1.20;100.00;100050.47;5086101;28;20219;-79
2023/03/01 06:38:34;;;;;;;19.73;13.33;;;;;;;-1.29;100.00;100054.81;5085636;28;20200;-79
2023/03/01 06:41:03;;;;;;;20.80;13.17;;;;;;;-1.22;100.00;100056.53;5087822;28;20241;-79
2023/03/01 06:43:31;;;;;;;21.23;13.37;;;;;;;-1.12;100.00;100047.84;5083949;28;20203;-79
2023/03/01 06:46:00;;;;;;;17.83;12.50;;;;;;;-1.02;100.00;100041.75;5089451;28;20200;-79
2023/03/01 06:48:29;;;;;;;20.40;13.37;;;;;;;-0.92;100.00;100042.59;5091947;28;20198;-79
2023/03/01 06:51:00;;;;;;;21.53;13.53;;;;;;;-0.82;100.00;100039.09;5093023;28;20216;-79
2023/03/01 06:53:28;;;;;;;22.33;13.23;;;;;;;-0.94;100.00;100033.94;5093910;28;20196;-80
2023/03/01 06:55:57;;;;;;;23.40;13.73;;;;;;;-0.81;100.00;100038.22;5083570;28;20200;-79
2023/03/01 06:58:26;;;;;;;19.57;13.90;;;;;;;-0.80;100.00;100026.94;5091364;28;20215;-79
2023/03/01 07:00:54;;;;;;;21.80;13.80;;;;;;;-0.81;100.00;100022.63;5055626;28;20191;-78
2023/03/01 07:03:22;;;;;;;20.47;13.83;;;;;;;-0.89;100.00;100030.44;5089855;28;20253;-79
2023/03/01 07:05:52;;;;;;;21.97;12.90;;;;;;;-0.85;100.00;100020.06;5091721;28;20203;-79
2023/03/01 07:08:21;;;;;;;20.17;13.23;;;;;;;-0.91;100.00;100028.72;5090510;28;20215;-78
2023/03/01 07:10:49;;;;;;;19.73;13.30;;;;;;;-0.74;100.00;100026.94;5093043;28;20272;-79
2023/03/01 07:13:19;;;;;;;18.97;13.17;;;;;;;-0.78;100.00;100035.59;5094691;28;20697;-79
2023/03/01 07:15:48;;;;;;;19.77;13.70;;;;;;;-0.55;100.00;100035.50;5098499;27;20199;-79
2023/03/01 07:18:16;;;;;;;21.87;13.60;;;;;;;-0.52;100.00;100037.22;5097103;27;20234;-79
2023/03/01 07:20:45;;;;;;;19.07;12.40;;;;;;;-0.40;100.00;100027.59;5094774;28;20273;-79
2023/03/01 07:23:15;;;;;;;18.20;12.60;;;;;;;-0.29;100.00;100030.16;5027651;28;20202;-79
2023/03/01 07:25:43;;;;;;;20.90;12.90;;;;;;;-0.24;100.00;100031.00;5031753;28;20186;-79
2023/03/01 07:28:12;;;;;;;18.50;12.57;;;;;;;-0.30;100.00;100037.09;5028270;28;20216;-80
2023/03/01 07:30:41;;;;;;;19.10;12.63;;;;;;;-0.12;100.00;100041.31;5033005;28;20206;-79
2023/03/01 07:33:09;;;;;;;18.00;12.97;;;;;;;-0.13;100.00;100042.19;5026881;28;20351;-79
2023/03/01 07:35:38;;;;;;;20.20;13.23;;;;;;;0.01;100.00;100041.25;5026620;28;20209;-79
2023/03/01 07:38:06;;;;;;;22.33;13.37;;;;;;;-0.01;100.00;100039.50;5028923;28;20240;-79
2023/03/01 07:40:35;;;;;;;20.57;13.10;;;;;;;0.00;100.00;100037.78;5031546;28;20260;-79
2023/03/01 07:43:04;;;;;;;20.07;13.70;;;;;;;0.01;100.00;100033.44;5032678;28;20197;-79
2023/03/01 07:45:32;;;;;;;21.50;14.27;;;;;;;0.01;100.00;100036.06;5032465;28;20652;-79
2023/03/01 07:48:01;;;;;;;21.93;13.13;;;;;;;0.00;100.00;100029.97;5064034;28;20188;-79
2023/03/01 07:50:29;;;;;;;23.00;12.87;;;;;;;0.13;100.00;100041.16;5094329;28;20203;-79
2023/03/01 07:52:57;;;;;;;19.03;12.80;;;;;;;0.19;100.00;100036.78;5091809;28;20263;-79
2023/03/01 07:55:26;;;;;;;21.67;13.50;;;;;;;0.21;100.00;100035.03;5093551;28;20195;-79
2023/03/01 07:57:55;;;;;;;20.57;13.70;;;;;;;0.21;100.00;100036.75;5088188;28;20202;-79
2023/03/01 08:00:24;;;;;;;19.13;13.23;;;;;;;0.33;100.00;100033.19;5091751;28;20204;-80
2023/03/01 08:02:53;;;;;;;21.10;13.67;;;;;;;0.35;100.00;100036.63;5094440;28;20191;-79
2023/03/01 08:05:22;;;;;;;21.73;13.37;;;;;;;0.37;100.00;100032.28;5094630;28;20677;-79
2023/03/01 08:07:50;;;;;;;19.33;13.07;;;;;;;0.54;100.00;100035.59;5094459;28;20195;-79
2023/03/01 08:10:20;;;;;;;21.73;13.33;;;;;;;0.52;100.00;100033.00;5089628;28;20199;-78
2023/03/01 08:12:48;;;;;;;19.90;11.97;;;;;;;0.82;100.00;100031.84;5093977;28;20215;-79
2023/03/01 08:15:18;;;;;;;18.40;12.37;;;;;;;0.83;100.00;100032.69;5091358;28;20353;-78
2023/03/01 08:17:49;;;;;;;16.30;11.37;;;;;;;0.90;100.00;100033.50;5090635;28;20195;-79
2023/03/01 08:20:17;;;;;;;17.27;12.43;;;;;;;0.90;100.00;100031.75;5092037;28;20289;-79
2023/03/01 08:22:46;;;;;;;17.30;12.37;;;;;;;0.99;100.00;100034.28;5094526;28;20188;-79
2023/03/01 08:25:15;;;;;;;21.33;12.27;;;;;;;0.94;100.00;100036.06;5092861;28;20192;-79
2023/03/01 08:27:43;;;;;;;16.50;12.30;;;;;;;0.83;100.00;100030.97;5091111;28;20248;-79
2023/03/01 08:30:12;;;;;;;18.47;11.37;;;;;;;1.06;100.00;100033.34;5089339;28;20507;-79
2023/03/01 08:32:42;;;;;;;19.70;11.60;;;;;;;0.94;100.00;100023.00;5093675;28;20261;-79
2023/03/01 08:35:14;;;;;;;18.70;11.63;;;;;;;1.02;100.00;100015.13;5094060;28;20211;-79
2023/03/01 08:37:42;;;;;;;21.70;12.20;;;;;;;1.17;100.00;100016.69;5092738;28;20188;-79
2023/03/01 08:40:13;;;;;;;19.00;12.03;;;;;;;1.07;100.00;100011.59;5085443;28;20188;-79
2023/03/01 08:42:42;;;;;;;17.73;11.73;;;;;;;1.29;100.00;100013.91;5070021;28;20222;-80
2023/03/01 08:45:12;;;;;;;18.57;11.43;;;;;;;1.28;100.00;100007.84;5093911;28;20196;-79
2023/03/01 08:47:42;;;;;;;17.30;11.40;;;;;;;1.37;100.00;100012.09;5089597;28;20203;-78
2023/03/01 08:50:11;;;;;;;15.73;11.30;;;;;;;1.69;100.00;100007.28;5093617;28;20325;-79
2023/03/01 08:52:39;;;;;;;19.03;11.20;;;;;;;1.64;100.00;99997.75;5093391;28;20215;-79
2023/03/01 08:55:09;;;;;;;15.93;10.23;;;;;;;1.80;100.00;99987.97;5086472;28;20207;-79
2023/03/01 08:57:37;;;;;;;16.73;10.93;;;;;;;1.91;100.00;99986.06;5087846;28;20192;-79
2023/03/01 09:00:09;;;;;;;16.20;10.30;;;;;;;2.05;100.00;99980.63;5090740;28;20281;-79
2023/03/01 09:02:38;;;;;;;15.23;10.47;;;;;;;1.80;100.00;99982.75;5093140;28;20196;-79
2023/03/01 09:05:10;;;;;;;13.10;9.87;;;;;;;1.97;100.00;99976.38;5092998;28;20207;-79
2023/03/01 09:07:38;;;;;;;15.40;10.77;;;;;;;2.25;100.00;99979.41;5093031;28;20237;-79
2023/03/01 09:10:10;;;;;;;15.40;10.67;;;;;;;2.45;100.00;99976.44;5092483;28;20204;-79
2023/03/01 09:12:38;;;;;;;17.63;11.17;;;;;;;2.41;100.00;99973.88;5088575;28;20318;-80
2023/03/01 09:15:09;;;;;;;15.27;10.60;;;;;;;2.58;100.00;99969.22;5093184;28;20194;-79
2023/03/01 09:17:37;;;;;;;16.20;10.60;;;;;;;2.57;100.00;99962.28;5089707;28;20223;-79
2023/03/01 09:20:09;;;;;;;16.20;10.87;;;;;;;2.78;100.00;99968.84;5093104;28;20250;-79
2023/03/01 09:22:38;;;;;;;17.40;10.90;;;;;;;2.84;100.00;99963.50;5093062;28;20195;-79
2023/03/01 09:25:07;;;;;;;14.77;10.47;;;;;;;2.94;100.00;99970.28;5090302;28;20195;-80
2023/03/01 09:27:36;;;;;;;14.80;10.47;;;;;;;2.98;100.00;99960.59;5090339;28;20200;-79
2023/03/01 09:30:05;;;;;;;15.20;9.67;;;;;;;3.12;100.00;99951.59;5091551;28;20620;-80
2023/03/01 09:32:33;;;;;;;25.63;14.77;;;;;;;3.30;100.00;99955.56;5093169;28;20220;-79
2023/03/01 09:35:04;;;;;;;17.10;10.17;;;;;;;3.41;100.00;99957.97;5089375;28;20272;-80
2023/03/01 09:37:35;;;;;;;13.87;9.73;;;;;;;3.72;100.00;99947.63;5087255;28;20200;-80
2023/03/01 09:40:05;;;;;;;14.93;11.00;;;;;;;3.67;100.00;99954.75;5090041;28;20704;-80
2023/03/01 09:42:35;;;;;;;17.10;11.40;;;;;;;3.54;100.00;99948.91;5092563;28;20783;-80
2023/03/01 09:45:08;;;;;;;15.10;10.50;;;;;;;3.79;100.00;99948.38;5089230;28;20198;-79
2023/03/01 09:47:37;;;;;;;13.50;9.30;;;;;;;4.17;99.94;99947.44;5093078;28;20190;-80
2023/03/01 09:50:12;;;;;;;14.13;11.17;;;;;;;4.15;98.44;99950.09;5095558;28;20195;-81
2023/03/01 09:52:48;;;;;;;15.40;10.80;;;;;;;3.95;100.00;99945.31;5082538;28;20215;-79
2023/03/01 09:55:21;;;;;;;15.77;9.87;;;;;;;4.07;99.00;99945.94;5092537;28;20190;-79
2023/03/01 09:57:54;;;;;;;14.00;9.20;;;;;;;4.22;97.50;99951.63;5090517;28;20200;-80
2023/03/01 10:00:34;;;;;;;13.37;9.57;;;;;;;4.66;95.45;99933.88;5092368;28;20658;-80
2023/03/01 10:03:12;;;;;;;12.47;9.37;;;;;;;4.71;92.25;99933.75;5087923;28;20199;-80
2023/03/01 10:05:49;;;;;;;15.63;9.47;;;;;;;4.77;92.58;99928.34;5092464;28;20191;-80
2023/03/01 10:08:41;;;;;;;13.00;9.00;;;;;;;4.82;92.02;99939.53;5086634;28;20218;-79
2023/03/01 10:11:21;;;;;;;13.63;9.83;;;;;;;5.11;89.72;99936.09;5086605;28;20200;-80
2023/03/01 10:13:59;;;;;;;17.80;10.70;;;;;;;5.26;87.09;99934.78;5092316;28;20314;-80
2023/03/01 10:16:35;;;;;;;16.30;10.07;;;;;;;5.47;84.26;99932.38;5092685;28;20213;-80
2023/03/01 10:19:06;;;;;;;12.50;9.10;;;;;;;5.38;83.35;99930.03;5092891;28;20230;-80
2023/03/01 10:21:40;;;;;;;13.43;9.20;;;;;;;5.43;83.15;99928.13;5090502;28;20716;-80
2023/03/01 10:24:14;;;;;;;12.50;9.03;;;;;;;5.80;83.86;99926.13;5092413;28;20201;-80
2023/03/01 10:26:50;;;;;;;13.67;9.37;;;;;;;5.61;81.58;99912.69;5087600;28;20260;-80
2023/03/01 10:29:23;;;;;;;12.90;8.73;;;;;;;5.67;79.62;99905.47;5086325;28;20221;-79
2023/03/01 10:31:57;;;;;;;14.83;9.13;;;;;;;5.61;78.88;99910.06;5092107;28;20200;-80
2023/03/01 10:34:34;;;;;;;13.77;8.67;;;;;;;5.98;76.24;99901.88;5094416;28;20234;-79
2023/03/01 10:37:12;;;;;;;15.57;8.97;;;;;;;6.01;75.14;99904.41;5089286;28;20200;-81
2023/03/01 10:39:57;;;;;;;12.40;8.70;;;;;;;6.24;74.83;99888.69;5085289;28;20203;-80
2023/03/01 10:42:31;;;;;;;12.37;8.37;;;;;;;6.20;73.32;99899.41;5091741;28;20184;-80
2023/03/01 10:45:17;;;;;;;13.67;7.77;;;;;;;6.58;70.26;99901.53;5094405;28;20211;-80
2023/03/01 10:47:47;;;;;;;11.80;8.40;;;;;;;6.85;68.36;99904.06;5095999;28;20230;-80
2023/03/01 10:50:22;;;;;;;12.67;8.67;;;;;;;6.99;67.13;99900.94;5092933;28;20200;-80
2023/03/01 10:53:02;;;;;;;12.63;8.03;;;;;;;6.97;65.95;99895.72;5094588;28;20211;-80
2023/03/01 10:55:36;;;;;;;11.83;8.27;;;;;;;6.90;63.27;99883.69;5092017;28;20245;-80
2023/03/01 10:58:19;;;;;;;10.10;7.47;;;;;;;7.00;63.20;99884.22;5093297;28;20236;-81
2023/03/01 11:00:52;;;;;;;11.90;8.60;;;;;;;7.60;62.56;99874.84;5092803;28;20192;-80
2023/03/01 11:03:25;;;;;;;11.73;7.77;;;;;;;7.67;60.38;99868.41;5092202;28;20248;-80
2023/03/01 11:06:05;;;;;;;11.33;7.80;;;;;;;7.68;58.99;99880.66;5095785;28;20199;-80
2023/03/01 11:08:37;;;;;;;7.97;6.83;;;;;;;7.60;56.59;99872.19;5093810;28;20199;-80
2023/03/01 11:11:22;;;;;;;9.80;7.03;;;;;;;8.26;53.64;99863.25;5089338;28;20204;-80
2023/03/01 11:13:58;;;;;;;11.73;7.33;;;;;;;8.19;53.94;99859.16;5090481;28;20258;-81
2023/03/01 11:16:33;;;;;;;24.43;15.80;;;;;;;8.47;52.26;99858.00;5093434;28;20206;-80
2023/03/01 11:19:17;;;;;;;11.63;8.53;;;;;;;8.35;54.14;99854.13;5090842;28;20278;-81
2023/03/01 11:21:59;;;;;;;12.50;8.27;;;;;;;8.46;55.15;99854.50;5087257;28;20207;-80
2023/03/01 11:24:39;;;;;;;10.57;7.90;;;;;;;7.83;53.34;99855.44;5087080;28;20253;-80
2023/03/01 11:27:19;;;;;;;10.60;7.77;;;;;;;8.88;52.19;99846.44;5089861;28;20278;-80
2023/03/01 11:29:53;;;;;;;11.93;8.20;;;;;;;9.18;52.02;99848.59;5090173;28;20199;-80